Time;durP1;ratioP1;P1;durP2;ratioP2;P2;SDS_P1;SDS_P2;PMS_P1;PMS_P2;Temp;Humidity;BMP_temperature;BMP_pressure;BME280_temperature;BME280_humidity;BME280_pressure;Samples;Min_cycle;Max_cycle;Signal;HPM_P1;HPM_P2
2023/09/06 00:04:36;;;;;;;2.95;0.88;;;;;;;19.13;61.81;100760.13;10285234;28;20066;-68
2023/09/06 00:09:39;;;;;;;1.52;0.80;;;;;;;19.11;62.06;100761.41;10279063;28;20053;-69
2023/09/06 00:14:40;;;;;;;5.63;1.23;;;;;;;19.09;61.98;100755.34;10279079;28;20050;-69
2023/09/06 00:19:42;;;;;;;1.27;0.82;;;;;;;18.99;62.32;100743.03;10277077;28;20077;-67
2023/09/06 00:24:44;;;;;;;6.15;0.75;;;;;;;18.92;62.36;100752.34;10278325;28;20426;-67
2023/09/06 00:29:46;;;;;;;4.53;1.10;;;;;;;18.79;62.65;100740.47;10280906;28;20050;-70
2023/09/06 00:34:48;;;;;;;2.05;1.10;;;;;;;18.77;62.60;100745.28;10280013;28;20039;-69
2023/09/06 00:39:50;;;;;;;2.80;0.80;;;;;;;18.67;62.92;100744.09;10280686;28;20050;-70
2023/09/06 00:44:51;;;;;;;2.00;1.05;;;;;;;18.67;62.87;100741.38;10287567;28;20220;-70
2023/09/06 00:49:53;;;;;;;1.33;0.70;;;;;;;18.59;62.89;100745.22;10277785;28;20410;-69
2023/09/06 00:54:55;;;;;;;3.25;1.13;;;;;;;18.54;63.13;100736.84;10281310;28;20074;-71
2023/09/06 00:59:59;;;;;;;3.63;1.20;;;;;;;18.52;63.06;100739.81;10278360;28;20050;-71
2023/09/06 01:05:01;;;;;;;3.45;0.70;;;;;;;18.50;63.12;100727.44;10285373;28;20050;-69
2023/09/06 01:10:05;;;;;;;2.20;1.55;;;;;;;18.45;63.51;100732.72;10296640;28;20073;-69
2023/09/06 01:15:08;;;;;;;2.25;0.80;;;;;;;18.30;63.58;100731.13;10298489;28;20485;-69
2023/09/06 01:20:29;;;;;;;2.90;0.80;;;;;;;18.23;64.01;100730.34;10283062;28;20089;-69
2023/09/06 01:25:31;;;;;;;6.80;1.00;;;;;;;18.16;63.82;100733.06;10287605;28;20070;-68
2023/09/06 01:30:32;;;;;;;6.47;0.88;;;;;;;18.15;63.96;100730.59;10288650;28;20217;-68
2023/09/06 01:35:34;;;;;;;3.08;0.90;;;;;;;18.13;63.90;100732.69;10287772;28;20089;-67
2023/09/06 01:40:35;;;;;;;3.35;1.05;;;;;;;18.03;64.08;100725.81;10281695;28;20054;-68
2023/09/06 01:45:38;;;;;;;5.13;1.00;;;;;;;17.95;64.17;100722.50;10286762;28;20047;-69
2023/09/06 01:50:41;;;;;;;3.08;1.00;;;;;;;17.92;64.28;100717.50;10283919;28;20049;-69
2023/09/06 01:55:43;;;;;;;4.00;1.27;;;;;;;17.91;64.43;100718.53;10284938;28;20054;-68
2023/09/06 02:00:45;;;;;;;2.50;0.95;;;;;;;17.88;64.77;100719.81;10281661;28;20422;-68
2023/09/06 02:05:47;;;;;;;3.95;1.33;;;;;;;17.83;64.47;100719.56;10300142;28;20517;-68
2023/09/06 02:10:49;;;;;;;6.20;1.00;;;;;;;17.80;64.68;100717.31;10286432;28;20312;-68
2023/09/06 02:15:50;;;;;;;1.48;1.10;;;;;;;17.80;64.79;100725.47;10287060;28;20051;-70
2023/09/06 02:20:55;;;;;;;3.88;1.33;;;;;;;17.77;64.88;100720.44;10283391;28;20051;-68
2023/09/06 02:25:57;;;;;;;1.60;1.05;;;;;;;17.79;64.89;100729.22;10286462;28;20060;-69
2023/09/06 02:30:59;;;;;;;1.88;1.02;;;;;;;17.75;65.23;100723.41;10284314;28;20058;-68
2023/09/06 02:36:00;;;;;;;2.60;1.20;;;;;;;17.72;65.13;100731.97;10285286;28;20067;-69
2023/09/06 02:41:02;;;;;;;2.92;1.27;;;;;;;17.67;65.22;100730.94;10286263;28;20070;-69
2023/09/06 02:46:03;;;;;;;1.95;1.00;;;;;;;17.66;65.21;100732.00;10287029;28;20055;-68
2023/09/06 02:51:08;;;;;;;2.50;1.42;;;;;;;17.61;65.35;100738.06;10295523;28;20390;-69
2023/09/06 02:56:10;;;;;;;2.92;1.05;;;;;;;17.57;65.52;100737.63;10279240;28;20055;-69
2023/09/06 03:01:19;;;;;;;2.72;0.90;;;;;;;17.53;65.34;100741.84;10278247;28;20047;-68
2023/09/06 03:06:32;;;;;;;1.85;1.08;;;;;;;17.42;65.49;100737.88;10284807;28;20086;-68
2023/09/06 03:11:34;;;;;;;2.17;1.00;;;;;;;17.36;65.70;100740.63;10282506;28;20070;-68
2023/09/06 03:16:38;;;;;;;3.17;1.10;;;;;;;17.33;65.54;100732.88;10284439;28;20089;-67
2023/09/06 03:21:40;;;;;;;6.07;1.17;;;;;;;17.31;65.46;100734.97;10280229;28;20066;-68
2023/09/06 03:26:43;;;;;;;2.08;1.13;;;;;;;17.28;65.45;100732.66;10295183;28;20335;-66
2023/09/06 03:31:45;;;;;;;2.28;1.05;;;;;;;17.20;65.53;100748.16;10284269;28;20407;-67
2023/09/06 03:36:51;;;;;;;2.30;0.80;;;;;;;17.16;65.65;100733.34;10278191;28;20043;-69
2023/09/06 03:41:52;;;;;;;3.78;1.02;;;;;;;17.13;65.72;100743.78;10280714;28;20051;-67
2023/09/06 03:46:56;;;;;;;1.45;1.00;;;;;;;17.09;65.67;100750.69;10280009;28;20060;-67
2023/09/06 03:51:59;;;;;;;3.38;1.13;;;;;;;17.07;66.03;100748.16;10282165;28;20054;-66
2023/09/06 03:57:04;;;;;;;1.17;0.90;;;;;;;17.02;66.02;100745.22;10263928;28;20054;-67
2023/09/06 04:02:09;;;;;;;1.42;0.82;;;;;;;16.99;65.84;100751.09;10281962;28;20145;-68
2023/09/06 04:07:13;;;;;;;2.28;1.20;;;;;;;16.96;65.97;100752.34;10280364;28;20242;-67
2023/09/06 04:12:15;;;;;;;9.38;2.78;;;;;;;16.91;66.31;100754.84;10292851;28;20053;-68
2023/09/06 04:17:17;;;;;;;6.07;2.13;;;;;;;16.84;66.38;100759.41;10280722;28;20290;-67
2023/09/06 04:22:19;;;;;;;3.47;1.85;;;;;;;16.81;66.57;100763.41;10279178;28;20078;-68
2023/09/06 04:27:21;;;;;;;3.97;1.55;;;;;;;16.77;66.60;100764.00;10279926;28;20275;-67
2023/09/06 04:32:22;;;;;;;3.25;1.23;;;;;;;16.75;66.83;100775.06;10282999;28;20049;-66
2023/09/06 04:37:23;;;;;;;3.88;1.63;;;;;;;16.73;66.76;100771.72;10280366;28;20043;-67
2023/09/06 04:42:25;;;;;;;3.20;1.40;;;;;;;16.70;66.74;100769.41;10283400;28;20039;-67
2023/09/06 04:47:26;;;;;;;1.92;1.40;;;;;;;16.65;66.60;100774.63;10277856;28;20038;-65
2023/09/06 04:52:28;;;;;;;2.55;1.50;;;;;;;16.67;66.54;100777.97;10280990;28;20055;-67
2023/09/06 04:57:29;;;;;;;5.45;1.25;;;;;;;16.63;66.73;100788.38;10280338;28;20051;-64
2023/09/06 05:02:31;;;;;;;4.47;1.40;;;;;;;16.64;66.77;100789.22;10289814;28;20047;-66
2023/09/06 05:07:32;;;;;;;5.63;1.70;;;;;;;16.67;66.65;100799.69;10291767;28;20278;-68
2023/09/06 05:12:33;;;;;;;2.00;1.50;;;;;;;16.71;66.67;100805.53;10290806;28;20391;-65
2023/09/06 05:17:35;;;;;;;6.47;1.55;;;;;;;16.71;67.00;100805.53;10284626;28;20114;-66
2023/09/06 05:22:36;;;;;;;4.15;1.85;;;;;;;16.72;67.15;100801.78;10291476;28;20039;-66
2023/09/06 05:27:38;;;;;;;2.55;1.77;;;;;;;16.75;67.35;100806.81;10286688;28;20082;-65
2023/09/06 05:32:39;;;;;;;5.47;2.40;;;;;;;16.75;67.73;100804.91;10283200;28;20043;-66
2023/09/06 05:37:41;;;;;;;2.55;1.30;;;;;;;16.90;67.61;100810.19;10289462;28;20078;-67
2023/09/06 05:42:42;;;;;;;7.50;1.80;;;;;;;17.00;67.34;100815.22;10281466;28;20373;-64
2023/09/06 05:47:44;;;;;;;2.38;1.42;;;;;;;17.06;67.57;100817.09;10282637;28;20309;-66
2023/09/06 05:52:46;;;;;;;4.63;2.60;;;;;;;17.22;67.46;100814.00;10289030;28;20051;-64
2023/09/06 05:57:47;;;;;;;4.65;2.42;;;;;;;17.29;67.45;100813.16;10290678;28;20110;-67
2023/09/06 06:02:49;;;;;;;3.55;1.75;;;;;;;17.41;67.64;100803.31;10284359;28;20093;-68
2023/09/06 06:07:51;;;;;;;2.88;1.65;;;;;;;17.53;67.33;100815.22;10285623;28;20113;-67
2023/09/06 06:12:52;;;;;;;8.07;1.73;;;;;;;17.66;67.58;100819.00;10294991;28;20062;-67
2023/09/06 06:17:54;;;;;;;3.20;1.80;;;;;;;17.82;67.45;100815.81;10282592;28;20394;-69
2023/09/06 06:22:55;;;;;;;6.57;2.03;;;;;;;17.98;67.49;100814.56;10285467;28;20043;-67
2023/09/06 06:27:57;;;;;;;4.53;1.77;;;;;;;18.16;67.20;100825.59;10287068;28;20067;-65
2023/09/06 06:33:00;;;;;;;3.97;1.60;;;;;;;18.27;67.26;100826.81;10284328;28;20247;-66
2023/09/06 06:38:02;;;;;;;3.45;1.83;;;;;;;18.46;67.01;100833.22;10282830;28;20255;-69
2023/09/06 06:43:03;;;;;;;2.22;1.58;;;;;;;18.64;67.06;100832.50;10288433;28;20339;-65
2023/09/06 06:48:05;;;;;;;1.80;1.40;;;;;;;18.88;66.70;100839.13;10288601;28;20055;-67
2023/09/06 06:53:08;;;;;;;3.10;1.33;;;;;;;19.06;66.63;100843.84;10283863;28;20052;-67
2023/09/06 06:58:09;;;;;;;2.90;1.40;;;;;;;19.23;66.36;100833.22;10282828;28;21475;-67
2023/09/06 07:03:11;;;;;;;4.70;2.20;;;;;;;19.37;66.11;100845.69;10281503;28;20375;-67
2023/09/06 07:08:13;;;;;;;2.63;1.42;;;;;;;19.53;66.04;100841.59;10288703;28;20082;-68
2023/09/06 07:13:15;;;;;;;3.92;1.90;;;;;;;19.72;65.41;100836.19;10283160;28;20047;-68
2023/09/06 07:18:16;;;;;;;3.83;1.73;;;;;;;19.94;65.37;100847.50;10282029;28;20102;-67
2023/09/06 07:23:18;;;;;;;1.80;1.38;;;;;;;20.21;64.45;100848.06;10284730;28;20157;-68
2023/09/06 07:28:22;;;;;;;5.72;0.98;;;;;;;20.40;64.06;100841.53;10288648;28;20102;-68
2023/09/06 07:33:24;;;;;;;3.42;1.92;;;;;;;20.70;63.35;100850.84;10288296;28;20117;-69
2023/09/06 07:38:25;;;;;;;3.63;1.40;;;;;;;20.92;62.67;100849.28;10286745;28;20153;-69
2023/09/06 07:43:28;;;;;;;3.65;1.27;;;;;;;21.13;62.17;100861.59;10282859;28;20046;-69
2023/09/06 07:48:31;;;;;;;3.53;1.70;;;;;;;21.32;61.86;100867.81;10293604;28;20051;-68
2023/09/06 07:53:33;;;;;;;3.85;1.10;;;;;;;21.55;60.72;100875.25;10291208;28;20087;-69
2023/09/06 07:58:34;;;;;;;2.47;1.30;;;;;;;21.76;60.29;100873.84;10283729;28;20094;-68
2023/09/06 08:03:37;;;;;;;1.85;1.20;;;;;;;21.92;59.88;100877.78;10281220;28;20344;-67
2023/09/06 08:08:38;;;;;;;2.20;1.27;;;;;;;22.10;58.73;100878.72;10280881;28;20105;-67
2023/09/06 08:13:41;;;;;;;3.67;1.40;;;;;;;22.27;58.39;100876.09;10286561;28;20062;-69
2023/09/06 08:18:44;;;;;;;2.58;1.17;;;;;;;22.46;57.67;100887.75;10285640;28;20582;-68
2023/09/06 08:23:46;;;;;;;4.05;1.10;;;;;;;22.63;56.89;100887.81;10283269;28;20043;-70
2023/09/06 08:28:49;;;;;;;3.53;1.00;;;;;;;22.83;56.49;100885.50;10300636;28;20050;-68
2023/09/06 08:33:50;;;;;;;1.77;1.10;;;;;;;23.03;55.86;100887.81;10296886;28;20054;-68
2023/09/06 08:38:52;;;;;;;1.65;1.30;;;;;;;23.17;55.40;100875.44;10289851;28;20054;-69
2023/09/06 08:43:54;;;;;;;2.35;1.25;;;;;;;23.32;54.81;100874.91;10286353;28;20050;-69
2023/09/06 08:48:57;;;;;;;3.53;2.22;;;;;;;23.55;54.37;100871.16;10291441;28;20066;-67
2023/09/06 08:53:59;;;;;;;3.17;1.58;;;;;;;23.82;53.80;100878.75;10293305;28;20122;-68
2023/09/06 08:59:02;;;;;;;2.50;1.15;;;;;;;23.94;53.54;100873.97;10285000;28;20053;-69
2023/09/06 09:04:05;;;;;;;2.65;1.33;;;;;;;24.22;52.88;100868.59;10284480;28;20150;-69
2023/09/06 09:09:17;;;;;;;1.92;1.15;;;;;;;24.40;51.53;100865.53;10285583;28;20051;-68
2023/09/06 09:14:23;;;;;;;3.25;1.60;;;;;;;24.63;50.75;100864.47;10279986;28;20078;-69
2023/09/06 09:19:25;;;;;;;7.93;1.92;;;;;;;24.89;50.54;100864.75;10291493;28;20185;-69
2023/09/06 09:24:29;;;;;;;1.77;1.30;;;;;;;25.06;49.65;100861.88;10286953;28;20057;-69
2023/09/06 09:29:30;;;;;;;3.00;2.00;;;;;;;25.27;48.65;100858.25;10291315;28;20077;-69
2023/09/06 09:34:32;;;;;;;2.72;1.17;;;;;;;25.51;48.41;100850.50;10293581;28;20062;-67
2023/09/06 09:39:34;;;;;;;2.55;1.30;;;;;;;25.70;48.00;100853.66;10284701;28;20581;-70
2023/09/06 09:44:36;;;;;;;2.92;0.90;;;;;;;25.96;47.69;100844.75;10281641;28;20246;-68
2023/09/06 09:49:42;;;;;;;6.35;1.67;;;;;;;26.14;46.76;100832.44;10289429;28;20178;-68
2023/09/06 09:54:47;;;;;;;4.40;1.52;;;;;;;26.34;46.58;100838.03;10281179;28;20351;-70
2023/09/06 09:59:50;;;;;;;5.05;1.27;;;;;;;26.60;45.76;100832.66;10284196;28;20495;-75
2023/09/06 10:04:53;;;;;;;3.38;1.30;;;;;;;26.80;45.37;100829.13;10286993;28;20074;-71
2023/09/06 10:09:55;;;;;;;5.05;1.45;;;;;;;26.99;44.98;100824.72;10290162;28;20057;-76
2023/09/06 10:14:57;;;;;;;1.80;1.27;;;;;;;27.18;44.74;100815.94;10290100;28;20056;-76
2023/09/06 10:19:58;;;;;;;4.30;1.50;;;;;;;27.41;44.30;100823.69;10288772;28;20122;-75
2023/09/06 10:25:06;;;;;;;1.83;1.13;;;;;;;27.69;43.19;100813.16;10285007;28;20463;-74
2023/09/06 10:30:10;;;;;;;1.90;1.30;;;;;;;28.08;42.70;100809.72;10308795;28;20069;-78
2023/09/06 10:35:21;;;;;;;2.83;1.70;;;;;;;28.45;41.39;100803.75;10288029;28;20039;-75
2023/09/06 10:40:24;;;;;;;1.67;1.15;;;;;;;28.95;40.69;100808.47;10284243;28;20047;-76
2023/09/06 10:45:26;;;;;;;2.55;1.17;;;;;;;29.47;39.27;100801.41;10290301;28;20092;-75
2023/09/06 10:50:29;;;;;;;4.20;1.48;;;;;;;29.91;38.65;100800.41;10287607;28;20042;-76
2023/09/06 10:55:46;;;;;;;2.90;1.17;;;;;;;30.36;37.01;100797.41;10286769;28;20070;-73
2023/09/06 11:01:13;;;;;;;3.65;0.98;;;;;;;30.64;36.56;100782.53;10291435;28;20263;-76
2023/09/06 11:06:15;;;;;;;2.33;1.38;;;;;;;30.94;35.99;100788.78;10287274;28;20058;-71
2023/09/06 11:11:16;;;;;;;1.35;0.98;;;;;;;31.04;34.39;100787.78;10297818;28;20507;-74
2023/09/06 11:16:18;;;;;;;2.47;1.60;;;;;;;31.08;34.41;100783.28;10283410;28;20103;-73
2023/09/06 11:21:22;;;;;;;1.65;0.98;;;;;;;31.01;34.34;100778.13;10281605;28;20065;-72
2023/09/06 11:26:26;;;;;;;1.35;0.93;;;;;;;30.91;34.87;100777.47;10294037;28;20066;-70
2023/09/06 11:31:33;;;;;;;5.85;0.80;;;;;;;30.94;34.90;100772.13;10289415;28;20050;-71
2023/09/06 11:36:36;;;;;;;3.38;1.17;;;;;;;30.91;34.89;100771.91;10296871;28;20062;-71
2023/09/06 11:41:40;;;;;;;3.00;1.00;;;;;;;30.75;34.61;100758.25;10282540;28;20039;-75
2023/09/06 11:46:43;;;;;;;3.47;0.90;;;;;;;30.72;33.94;100760.78;10286123;28;20047;-74
2023/09/06 11:51:47;;;;;;;2.10;1.10;;;;;;;30.70;34.23;100765.81;10285106;28;20119;-73
2023/09/06 11:56:49;;;;;;;5.07;1.42;;;;;;;30.75;33.74;100760.22;10286196;28;20051;-74
2023/09/06 12:01:58;;;;;;;6.35;1.58;;;;;;;30.75;33.97;100751.88;10280933;28;20122;-75
2023/09/06 12:07:02;;;;;;;2.90;0.80;;;;;;;30.84;33.83;100753.63;10288445;28;20054;-75
2023/09/06 12:12:06;;;;;;;3.15;1.02;;;;;;;30.88;33.76;100745.53;10281944;28;20057;-73
2023/09/06 12:17:08;;;;;;;2.05;1.10;;;;;;;30.99;33.24;100730.38;10284200;28;20047;-74
2023/09/06 12:22:09;;;;;;;2.72;1.48;;;;;;;31.21;32.77;100732.50;10284870;28;20413;-75
2023/09/06 12:27:14;;;;;;;1.52;0.88;;;;;;;31.39;32.08;100724.41;10283217;28;20075;-74
2023/09/06 12:32:16;;;;;;;4.10;1.57;;;;;;;31.53;32.14;100713.31;10278140;28;20039;-76
2023/09/06 12:37:18;;;;;;;3.80;1.20;;;;;;;31.97;31.08;100721.03;10299710;28;20062;-75
2023/09/06 12:42:20;;;;;;;2.20;1.30;;;;;;;32.27;31.16;100717.88;10282885;28;20307;-74
2023/09/06 12:47:22;;;;;;;2.40;1.10;;;;;;;32.29;31.08;100704.47;10298840;28;20366;-74
2023/09/06 12:52:24;;;;;;;2.03;0.90;;;;;;;32.17;31.12;100694.75;10277597;28;20050;-76
2023/09/06 12:57:29;;;;;;;1.30;1.00;;;;;;;32.16;31.34;100693.09;10284351;28;20366;-74
2023/09/06 13:02:33;;;;;;;1.27;0.85;;;;;;;32.26;31.00;100688.44;10288605;28;20161;-76
2023/09/06 13:07:36;;;;;;;1.53;1.00;;;;;;;32.22;31.26;100682.66;10282955;28;20405;-76
2023/09/06 13:12:38;;;;;;;2.45;1.00;;;;;;;32.29;31.05;100680.28;10290071;28;20134;-78
2023/09/06 13:17:39;;;;;;;1.52;1.00;;;;;;;32.29;30.85;100685.00;10283447;28;20062;-75
2023/09/06 13:22:42;;;;;;;2.92;1.23;;;;;;;32.37;30.91;100670.34;10290189;28;20059;-77
2023/09/06 13:27:43;;;;;;;1.55;0.90;;;;;;;32.40;30.99;100666.94;10291399;28;20047;-75
2023/09/06 13:32:45;;;;;;;2.22;1.10;;;;;;;32.42;30.87;100659.91;10304305;28;20176;-74
2023/09/06 13:37:46;;;;;;;1.38;0.90;;;;;;;32.44;30.44;100656.00;10291096;28;20403;-76
2023/09/06 13:42:48;;;;;;;1.20;0.80;;;;;;;32.51;30.53;100657.19;10301184;28;20097;-77
2023/09/06 13:47:49;;;;;;;1.35;0.90;;;;;;;32.74;29.99;100646.06;10302784;28;20306;-78
2023/09/06 13:52:51;;;;;;;1.15;0.88;;;;;;;32.92;30.16;100639.47;10305915;28;20038;-74
2023/09/06 13:57:52;;;;;;;0.85;0.70;;;;;;;33.24;29.91;100640.28;10292839;28;20118;-76
2023/09/06 14:02:54;;;;;;;1.60;1.00;;;;;;;33.58;29.32;100642.34;10303030;28;20366;-75
2023/09/06 14:07:56;;;;;;;1.23;0.90;;;;;;;34.13;28.56;100638.19;10294992;28;20047;-74
2023/09/06 14:12:57;;;;;;;1.65;1.00;;;;;;;34.90;28.07;100632.06;10289759;28;20034;-75
2023/09/06 14:17:59;;;;;;;1.30;0.85;;;;;;;35.61;27.20;100636.19;10287718;28;20085;-78
2023/09/06 14:23:00;;;;;;;1.10;0.70;;;;;;;36.63;25.62;100626.44;10289466;28;20050;-72
2023/09/06 14:28:02;;;;;;;1.20;0.70;;;;;;;39.15;22.85;100625.72;10283805;28;20039;-74
2023/09/06 14:33:05;;;;;;;1.55;0.60;;;;;;;40.46;21.76;100626.25;10284516;28;20055;-75
2023/09/06 14:38:07;;;;;;;1.92;0.85;;;;;;;41.45;20.35;100617.09;10284403;28;20102;-75
2023/09/06 14:43:10;;;;;;;0.95;0.85;;;;;;;41.78;19.70;100615.56;10286477;28;20039;-77
2023/09/06 14:48:11;;;;;;;1.13;0.82;;;;;;;41.61;20.22;100606.50;10281400;28;20110;-76
2023/09/06 14:53:13;;;;;;;1.00;0.70;;;;;;;41.55;20.07;100610.81;10282801;28;20061;-76
2023/09/06 14:58:15;;;;;;;1.17;0.60;;;;;;;41.00;20.42;100610.34;10290505;28;20442;-74
2023/09/06 15:03:16;;;;;;;1.90;0.77;;;;;;;39.75;21.31;100605.81;10293019;28;20066;-74
2023/09/06 15:08:17;;;;;;;4.60;1.00;;;;;;;38.57;22.42;100610.16;10301802;28;20113;-72
2023/09/06 15:13:19;;;;;;;2.08;0.85;;;;;;;37.65;23.09;100612.69;10287180;28;20347;-73
2023/09/06 15:18:23;;;;;;;1.33;0.85;;;;;;;37.28;23.73;100609.88;10282116;28;20252;-72
2023/09/06 15:23:25;;;;;;;3.95;0.70;;;;;;;36.88;23.67;100593.72;10285407;28;20311;-75
2023/09/06 15:28:27;;;;;;;1.70;1.00;;;;;;;36.61;24.33;100594.34;10289615;28;20054;-76
2023/09/06 15:33:29;;;;;;;3.97;0.60;;;;;;;36.33;24.70;100600.56;10283699;28;20047;-71
2023/09/06 15:38:30;;;;;;;2.38;1.10;;;;;;;36.09;25.07;100588.09;10280178;28;20054;-71
2023/09/06 15:43:32;;;;;;;3.50;0.80;;;;;;;36.02;25.09;100589.81;10283238;28;20672;-69
2023/09/06 15:48:33;;;;;;;5.60;1.23;;;;;;;35.85;25.71;100588.78;10298950;28;20114;-73
2023/09/06 15:53:35;;;;;;;5.35;1.13;;;;;;;35.87;25.85;100588.47;10281410;28;20063;-75
2023/09/06 15:58:36;;;;;;;2.30;1.10;;;;;;;35.89;26.09;100588.94;10282448;28;20268;-75
2023/09/06 16:03:38;;;;;;;2.83;1.20;;;;;;;35.78;26.24;100580.13;10283769;28;20445;-72
2023/09/06 16:08:39;;;;;;;5.25;0.98;;;;;;;35.70;26.49;100581.81;10289027;28;20046;-73
2023/09/06 16:13:41;;;;;;;2.70;1.00;;;;;;;35.74;26.97;100577.22;10285174;28;20069;-71
2023/09/06 16:18:50;;;;;;;4.18;1.45;;;;;;;35.77;26.76;100575.69;10281857;28;20062;-73
2023/09/06 16:23:52;;;;;;;2.28;0.85;;;;;;;35.84;26.75;100581.56;10295966;28;20062;-74
2023/09/06 16:28:53;;;;;;;1.80;0.68;;;;;;;35.92;26.83;100582.63;10320520;28;20115;-73
2023/09/06 16:33:55;;;;;;;2.30;1.02;;;;;;;36.00;26.95;100586.53;10320623;28;20054;-72
2023/09/06 16:38:56;;;;;;;1.55;0.88;;;;;;;35.98;26.65;100586.06;10296366;28;20050;-73
2023/09/06 16:43:58;;;;;;;1.65;1.08;;;;;;;36.00;26.67;100573.38;10309445;23;20058;-58
2023/09/06 16:48:59;;;;;;;4.20;0.95;;;;;;;36.04;26.71;100573.47;10298073;28;20038;-58
2023/09/06 16:54:01;;;;;;;2.78;0.93;;;;;;;35.97;26.69;100567.63;10307602;28;20042;-58
2023/09/06 16:59:05;;;;;;;1.10;1.00;;;;;;;35.55;27.14;100565.63;10307669;28;20620;-59
2023/09/06 17:04:07;;;;;;;2.83;0.93;;;;;;;34.99;27.80;100574.13;10285081;28;20494;-60
2023/09/06 17:09:09;;;;;;;2.38;1.10;;;;;;;34.38;28.33;100582.69;10304159;28;20518;-60
2023/09/06 17:14:11;;;;;;;4.95;1.40;;;;;;;33.76;28.80;100572.69;10302568;28;20492;-64
2023/09/06 17:19:12;;;;;;;3.92;1.30;;;;;;;33.23;29.59;100570.94;10307413;28;20496;-65
2023/09/06 17:24:14;;;;;;;1.73;1.25;;;;;;;32.72;30.47;100564.81;10306007;28;20031;-64
2023/09/06 17:29:17;;;;;;;4.93;1.38;;;;;;;32.25;31.05;100565.19;10301576;28;20398;-64
2023/09/06 17:34:19;;;;;;;1.50;0.93;;;;;;;31.85;31.90;100570.56;10303476;28;20490;-63
2023/09/06 17:39:20;;;;;;;4.85;2.08;;;;;;;31.40;32.73;100570.44;10296626;28;20065;-63
2023/09/06 17:44:22;;;;;;;4.45;1.80;;;;;;;30.97;33.45;100571.59;10296145;28;20070;-64
2023/09/06 17:49:25;;;;;;;4.28;1.45;;;;;;;30.64;34.61;100579.94;10302129;28;20050;-66
2023/09/06 17:54:29;;;;;;;6.97;2.50;;;;;;;30.25;35.32;100569.22;10304411;28;20042;-64
2023/09/06 17:59:30;;;;;;;5.35;2.15;;;;;;;29.88;35.88;100581.19;10302745;28;20038;-62
2023/09/06 18:04:32;;;;;;;4.93;1.83;;;;;;;29.54;36.65;100584.97;10298568;28;20038;-62
2023/09/06 18:09:35;;;;;;;2.90;1.58;;;;;;;29.19;37.26;100590.66;10299589;28;20130;-61
2023/09/06 18:14:37;;;;;;;4.75;1.77;;;;;;;28.88;38.88;100590.97;10294883;28;20054;-62
2023/09/06 18:19:38;;;;;;;3.78;1.52;;;;;;;28.54;39.44;100601.28;10301715;28;20058;-61
2023/09/06 18:24:39;;;;;;;4.63;1.40;;;;;;;28.20;40.24;100593.75;10299197;28;20319;-62
2023/09/06 18:29:42;;;;;;;2.65;1.30;;;;;;;27.83;40.82;100597.88;10302261;28;20045;-66
2023/09/06 18:34:43;;;;;;;3.55;1.40;;;;;;;27.43;42.42;100602.47;10302788;28;20642;-61
2023/09/06 18:39:47;;;;;;;8.65;3.08;;;;;;;27.16;42.81;100611.13;10299123;28;20054;-64
2023/09/06 18:44:49;;;;;;;6.32;2.58;;;;;;;26.87;43.57;100611.72;10295176;28;20529;-62
2023/09/06 18:49:51;;;;;;;7.85;1.67;;;;;;;26.54;44.05;100610.34;10303409;28;20054;-64
2023/09/06 18:54:53;;;;;;;7.82;2.17;;;;;;;26.23;44.78;100619.44;10301441;28;20050;-63
2023/09/06 18:59:54;;;;;;;2.65;1.63;;;;;;;25.90;45.20;100617.97;10302238;28;20054;-63
2023/09/06 19:04:56;;;;;;;5.55;1.60;;;;;;;25.70;45.77;100627.00;10301502;28;20058;-63
2023/09/06 19:10:00;;;;;;;5.50;2.13;;;;;;;25.53;45.98;100632.72;10295755;28;20050;-64
2023/09/06 19:15:04;;;;;;;5.50;2.30;;;;;;;25.32;47.12;100637.31;10295969;28;20049;-64
2023/09/06 19:20:06;;;;;;;8.73;2.22;;;;;;;25.06;47.27;100644.53;10296311;28;20380;-64
2023/09/06 19:25:08;;;;;;;4.07;1.65;;;;;;;24.89;48.17;100644.72;10307552;28;20514;-63
2023/09/06 19:30:11;;;;;;;4.57;2.00;;;;;;;24.72;48.33;100642.97;10303651;28;20399;-64
2023/09/06 19:35:13;;;;;;;4.30;1.98;;;;;;;24.59;48.96;100650.84;10302821;28;20078;-63
2023/09/06 19:40:15;;;;;;;5.40;2.05;;;;;;;24.45;48.94;100647.66;10299024;28;20185;-64
2023/09/06 19:45:17;;;;;;;7.50;3.00;;;;;;;24.30;49.72;100653.81;10297482;28;20565;-64
2023/09/06 19:50:18;;;;;;;2.83;2.00;;;;;;;24.15;49.87;100655.34;10302138;28;20049;-63
2023/09/06 19:55:21;;;;;;;2.70;2.15;;;;;;;24.00;50.56;100648.84;10302564;28;20069;-67
2023/09/06 20:00:23;;;;;;;5.60;2.10;;;;;;;23.82;50.92;100656.34;10300640;28;20047;-67
2023/09/06 20:05:24;;;;;;;6.45;2.75;;;;;;;23.60;51.56;100658.22;10298126;28;20323;-66
2023/09/06 20:10:26;;;;;;;3.35;2.20;;;;;;;23.48;51.78;100656.44;10297028;28;20074;-66
2023/09/06 20:15:27;;;;;;;4.70;2.42;;;;;;;23.32;52.20;100651.81;10300094;28;20051;-67
2023/09/06 20:20:29;;;;;;;5.10;2.45;;;;;;;23.22;52.39;100665.41;10300010;28;20049;-61
2023/09/06 20:25:30;;;;;;;6.55;2.25;;;;;;;23.09;52.16;100661.13;10302311;28;20047;-61
2023/09/06 20:30:36;;;;;;;7.75;2.22;;;;;;;22.94;52.65;100661.66;10289398;28;20056;-61
2023/09/06 20:35:39;;;;;;;4.38;2.08;;;;;;;22.77;52.80;100665.25;10311046;28;20046;-62
2023/09/06 20:40:41;;;;;;;2.30;1.95;;;;;;;22.65;52.92;100672.75;10294077;28;20050;-62
2023/09/06 20:45:44;;;;;;;4.75;2.72;;;;;;;22.54;53.20;100671.72;10310373;28;20057;-63
2023/09/06 20:50:49;;;;;;;3.30;2.00;;;;;;;;;;10293607;28;20062;-63
2023/09/06 20:55:51;;;;;;;3.15;1.77;;;;;;;22.34;53.64;100672.19;10307985;28;20043;-61
2023/09/06 21:00:55;;;;;;;2.75;2.28;;;;;;;22.24;53.85;100672.00;10306921;28;20053;-63
2023/09/06 21:05:58;;;;;;;8.05;2.70;;;;;;;22.13;54.07;100681.06;10309791;28;20145;-62
2023/09/06 21:10:59;;;;;;;3.67;2.40;;;;;;;22.01;54.11;100683.03;10306905;28;20049;-61
2023/09/06 21:16:01;;;;;;;3.35;1.95;;;;;;;21.91;54.78;100691.88;10307591;28;20412;-60
2023/09/06 21:21:03;;;;;;;4.45;2.40;;;;;;;21.83;55.04;100686.78;10291560;28;20050;-60
2023/09/06 21:26:07;;;;;;;6.53;2.40;;;;;;;21.71;55.34;100686.81;10304060;28;20069;-60
2023/09/06 21:31:08;;;;;;;3.40;2.55;;;;;;;21.55;55.73;100693.88;10303744;28;20052;-61
2023/09/06 21:36:10;;;;;;;6.22;1.83;;;;;;;21.42;56.08;100696.81;10298237;28;20050;-62
2023/09/06 21:41:12;;;;;;;4.72;2.63;;;;;;;21.33;56.04;100694.44;10300170;28;20038;-61
2023/09/06 21:46:13;;;;;;;5.72;2.85;;;;;;;21.22;56.77;100705.38;10305037;28;20050;-61
2023/09/06 21:51:16;;;;;;;4.30;2.50;;;;;;;21.07;56.63;100706.69;10304762;28;20046;-62
2023/09/06 21:56:18;;;;;;;3.17;2.20;;;;;;;20.94;57.09;100705.00;10302411;28;20053;-61
2023/09/06 22:01:19;;;;;;;3.83;1.88;;;;;;;20.85;57.21;100714.63;10300658;28;20046;-61
2023/09/06 22:06:20;;;;;;;3.83;1.90;;;;;;;20.77;57.08;100713.09;10305674;28;20129;-61
2023/09/06 22:11:22;;;;;;;5.70;1.98;;;;;;;20.71;57.05;100714.00;10309524;28;20047;-61
2023/09/06 22:16:23;;;;;;;3.60;2.20;;;;;;;20.62;56.94;100722.75;10287096;28;20761;-59
2023/09/06 22:21:25;;;;;;;3.10;2.10;;;;;;;20.51;57.45;100729.84;10302505;28;20062;-58
2023/09/06 22:26:27;;;;;;;3.63;1.80;;;;;;;20.46;57.98;100726.94;10299221;28;20054;-58
2023/09/06 22:31:28;;;;;;;3.85;2.13;;;;;;;20.41;58.17;100719.47;10304204;28;20050;-58
2023/09/06 22:36:30;;;;;;;5.10;1.90;;;;;;;20.38;58.11;100717.22;10305816;28;20499;-58
2023/09/06 22:41:32;;;;;;;3.03;2.17;;;;;;;20.27;58.76;100718.00;10301535;28;20050;-62
2023/09/06 22:46:33;;;;;;;3.83;2.20;;;;;;;20.25;58.60;100714.66;10299472;28;20053;-61
2023/09/06 22:51:36;;;;;;;3.40;2.05;;;;;;;20.14;58.68;100714.41;10295662;28;20056;-61
2023/09/06 22:56:38;;;;;;;5.38;2.15;;;;;;;20.12;58.80;100716.53;10302237;28;20189;-61
2023/09/06 23:01:39;;;;;;;2.38;1.88;;;;;;;20.09;59.09;100718.88;10296824;28;20049;-61
2023/09/06 23:06:41;;;;;;;5.05;2.20;;;;;;;20.05;59.03;100729.41;10298656;28;20046;-61
2023/09/06 23:11:47;;;;;;;4.65;2.28;;;;;;;19.94;59.34;100727.44;10296126;28;20125;-62